Time;durP1;ratioP1;P1;durP2;ratioP2;P2;SDS_P1;SDS_P2;PMS_P1;PMS_P2;Temp;Humidity;BMP_temperature;BMP_pressure;BME280_temperature;BME280_humidity;BME280_pressure;Samples;Min_cycle;Max_cycle;Signal;HPM_P1;HPM_P2
2023/10/01 00:00:16;;;;;;;;;;;;;;;;;;2223172;58;3503;-81
2023/10/01 00:03:09;;;;;;;;;;;;;;;;;;2219935;58;2859;-81
2023/10/01 00:05:41;;;;;;;;;;;;;;;;;;2221218;58;2681;-82
2023/10/01 00:08:12;;;;;;;;;;;;;;;;;;2223360;58;1853;-82
2023/10/01 00:10:43;;;;;;;;;;;;;;;;;;2222333;58;1789;-82
2023/10/01 00:13:14;;;;;;;;;;;;;;;;;;2222018;58;1887;-82
2023/10/01 00:15:44;;;;;;;;;;;;;;;;;;2221603;58;2381;-81
2023/10/01 00:18:20;;;;;;;;;;;;;;;;;;2222724;58;1874;-81
2023/10/01 00:21:02;;;;;;;;;;;;;;;;;;2221870;58;2480;-82
2023/10/01 00:23:38;;;;;;;;;;;;;;;;;;2222392;58;1901;-82
2023/10/01 00:26:11;;;;;;;;;;;;;;;;;;2221303;58;2301;-81
2023/10/01 00:28:45;;;;;;;;;;;;;;;;;;2221416;58;2006;-81
2023/10/01 00:31:23;;;;;;;;;;;;;;;;;;2221208;58;2240;-81
2023/10/01 00:33:54;;;;;;;;;;;;;;;;;;2220226;58;2020;-81
2023/10/01 00:36:28;;;;;;;;;;;;;;;;;;2223186;58;3776;-82
2023/10/01 00:38:59;;;;;;;;;;;;;;;;;;2223967;58;2660;-82
2023/10/01 00:41:30;;;;;;;;;;;;;;;;;;2223868;58;1998;-81
2023/10/01 00:44:03;;;;;;;;;;;;;;;;;;2222230;58;3666;-81
2023/10/01 00:46:34;;;;;;;;;;;;;;;;;;2222575;58;2767;-81
2023/10/01 00:49:14;;;;;;;;;;;;;;;;;;2222191;58;1719;-81
2023/10/01 00:51:46;;;;;;;;;;;;;;;;;;2221546;58;2632;-81
2023/10/01 00:54:22;;;;;;;;;;;;;;;;;;2223260;58;2154;-81
2023/10/01 00:56:58;;;;;;;;;;;;;;;;;;2222578;58;1924;-81
2023/10/01 00:59:33;;;;;;;;;;;;;;;;;;2220905;58;2458;-82
2023/10/01 01:02:07;;;;;;;;;;;;;;;;;;2222646;58;2002;-81
2023/10/01 01:04:44;;;;;;;;;;;;;;;;;;2223125;58;2122;-81
2023/10/01 01:07:16;;;;;;;;;;;;;;;;;;2222450;58;2509;-82
2023/10/01 01:09:52;;;;;;;;;;;;;;;;;;2221710;58;1713;-81
2023/10/01 01:12:26;;;;;;;;;;;;;;;;;;2222782;58;3071;-82
2023/10/01 01:15:01;;;;;;;;;;;;;;;;;;2221684;58;3295;-81
2023/10/01 01:17:31;;;;;;;;;;;;;;;;;;2223172;59;2523;-82
2023/10/01 01:20:03;;;;;;;;;;;;;;;;;;2222996;58;2181;-81
2023/10/01 01:22:34;;;;;;;;;;;;;;;;;;2223217;58;2378;-81
2023/10/01 01:25:19;;;;;;;;;;;;;;;;;;2221607;66;2122;-81
2023/10/01 01:28:12;;;;;;;;;;;;;;;;;;2222808;58;1663;-83
2023/10/01 01:30:52;;;;;;;;;;;;;;;;;;2221904;58;2246;-81
2023/10/01 01:33:29;;;;;;;;;;;;;;;;;;2223469;58;1724;-81
2023/10/01 01:36:00;;;;;;;;;;;;;;;;;;2221910;58;2011;-81
2023/10/01 01:38:39;;;;;;;;;;;;;;;;;;2223012;58;1828;-81
2023/10/01 01:41:19;;;;;;;;;;;;;;;;;;2222437;58;3915;-80
2023/10/01 01:43:50;;;;;;;;;;;;;;;;;;2228349;58;3646;-81
2023/10/01 01:46:20;;;;;;;;;;;;;;;;;;2231726;58;3608;-80
2023/10/01 01:48:53;;;;;;;;;;;;;;;;;;2226221;58;1737;-80
2023/10/01 01:51:29;;;;;;;;;;;;;;;;;;2228871;58;2485;-81
2023/10/01 01:54:07;;;;;;;;;;;;;;;;;;2230541;58;2236;-82
2023/10/01 01:56:45;;;;;;;;;;;;;;;;;;2225659;58;1924;-81
2023/10/01 01:59:21;;;;;;;;;;;;;;;;;;2222927;58;1699;-81
2023/10/01 02:01:57;;;;;;;;;;;;;;;;;;2223092;58;1698;-82
2023/10/01 02:04:35;;;;;;;;;;;;;;;;;;2230143;58;2502;-80
2023/10/01 02:07:16;;;;;;;;;;;;;;;;;;2228669;58;2486;-81
2023/10/01 02:09:48;;;;;;;;;;;;;;;;;;2223890;58;2115;-81
2023/10/01 02:12:24;;;;;;;;;;;;;;;;;;2222743;58;1998;-81
2023/10/01 02:14:57;;;;;;;;;;;;;;;;;;2222130;58;2563;-81
2023/10/01 02:17:35;;;;;;;;;;;;;;;;;;2221395;58;1937;-81
2023/10/01 02:20:22;;;;;;;;;;;;;;;;;;2221998;58;2668;-81
2023/10/01 02:22:58;;;;;;;;;;;;;;;;;;2221734;58;2021;-81
2023/10/01 02:25:37;;;;;;;;;;;;;;;;;;2222245;58;2191;-81
2023/10/01 02:28:13;;;;;;;;;;;;;;;;;;2221740;58;1869;-81
2023/10/01 02:30:47;;;;;;;;;;;;;;;;;;2223023;58;2461;-81
2023/10/01 02:33:24;;;;;;;;;;;;;;;;;;2222916;58;2344;-81
2023/10/01 02:35:58;;;;;;;;;;;;;;;;;;2222637;66;2400;-81
2023/10/01 02:38:43;;;;;;;;;;;;;;;;;;2222365;58;1744;-81
2023/10/01 02:41:20;;;;;;;;;;;;;;;;;;2219254;58;1854;-82
2023/10/01 02:43:55;;;;;;;;;;;;;;;;;;2220918;58;2782;-81
2023/10/01 02:46:28;;;;;;;;;;;;;;;;;;2222406;58;2285;-81
2023/10/01 02:49:11;;;;;;;;;;;;;;;;;;2221993;58;2362;-81
2023/10/01 02:51:49;;;;;;;;;;;;;;;;;;2221690;58;2125;-81
2023/10/01 02:54:20;;;;;;;;;;;;;;;;;;2221540;58;2726;-81
2023/10/01 02:57:12;;;;;;;;;;;;;;;;;;2221936;58;1941;-81
2023/10/01 03:02:38;;;;;;;;;;;;;;;;;;2222361;58;2059;-81
2023/10/01 03:05:18;;;;;;;;;;;;;;;;;;2221977;58;1665;-82
2023/10/01 03:07:51;;;;;;;;;;;;;;;;;;2222210;58;2752;-82
2023/10/01 03:10:31;;;;;;;;;;;;;;;;;;2221245;66;2361;-82
2023/10/01 03:13:14;;;;;;;;;;;;;;;;;;2220962;58;1910;-82
2023/10/01 03:16:39;;;;;;;;;;;;;;;;;;2222341;58;1990;-82
2023/10/01 03:18:36;;;;;;;;;;;;;;;;;;2221024;58;2737;-81
2023/10/01 03:21:18;;;;;;;;;;;;;;;;;;2222815;58;1864;-81
2023/10/01 03:23:54;;;;;;;;;;;;;;;;;;2222196;58;1734;-82
2023/10/01 03:26:27;;;;;;;;;;;;;;;;;;2223053;58;1953;-82
2023/10/01 03:29:19;;;;;;;;;;;;;;;;;;2221627;58;1783;-82
2023/10/01 03:31:53;;;;;;;;;;;;;;;;;;2222769;58;2308;-81
2023/10/01 03:34:30;;;;;;;;;;;;;;;;;;2222981;58;2799;-82
2023/10/01 03:37:09;;;;;;;;;;;;;;;;;;2222704;58;1912;-81
2023/10/01 03:39:51;;;;;;;;;;;;;;;;;;2224082;58;1881;-82
2023/10/01 03:42:25;;;;;;;;;;;;;;;;;;2224405;58;3494;-82
2023/10/01 03:45:05;;;;;;;;;;;;;;;;;;2222543;58;1821;-81
2023/10/01 03:47:36;;;;;;;;;;;;;;;;;;2220397;58;2073;-81
2023/10/01 03:50:21;;;;;;;;;;;;;;;;;;2222951;58;2019;-81
2023/10/01 03:53:11;;;;;;;;;;;;;;;;;;2222214;58;2019;-81
2023/10/01 03:55:46;;;;;;;;;;;;;;;;;;2219295;58;2897;-81
2023/10/01 03:58:25;;;;;;;;;;;;;;;;;;2223043;58;1866;-81
2023/10/01 04:01:58;;;;;;;;;;;;;;;;;;2221496;58;2674;-81
2023/10/01 04:04:00;;;;;;;;;;;;;;;;;;2221236;59;2057;-80
2023/10/01 04:06:32;;;;;;;;;;;;;;;;;;2223619;58;1677;-82
2023/10/01 04:09:06;;;;;;;;;;;;;;;;;;2222146;58;1808;-81
2023/10/01 04:11:49;;;;;;;;;;;;;;;;;;2223359;58;2346;-81
2023/10/01 04:14:23;;;;;;;;;;;;;;;;;;2223772;58;1835;-81
2023/10/01 04:16:56;;;;;;;;;;;;;;;;;;2222916;58;1966;-81
2023/10/01 04:19:32;;;;;;;;;;;;;;;;;;2222877;58;1848;-81
2023/10/01 04:22:06;;;;;;;;;;;;;;;;;;2219305;58;2076;-81
2023/10/01 04:24:43;;;;;;;;;;;;;;;;;;2223736;58;1593;-81
2023/10/01 04:27:24;;;;;;;;;;;;;;;;;;2221674;58;1841;-81
2023/10/01 04:30:00;;;;;;;;;;;;;;;;;;2222468;58;1929;-82
2023/10/01 04:32:39;;;;;;;;;;;;;;;;;;2223887;58;2590;-81
2023/10/01 04:35:14;;;;;;;;;;;;;;;;;;2222927;58;1936;-81
2023/10/01 04:37:48;;;;;;;;;;;;;;;;;;2220913;58;1908;-81
2023/10/01 04:43:10;;;;;;;;;;;;;;;;;;2221635;58;4130;-82
2023/10/01 04:45:47;;;;;;;;;;;;;;;;;;2222141;58;3344;-82
2023/10/01 04:48:25;;;;;;;;;;;;;;;;;;2221373;58;2262;-82
2023/10/01 04:50:59;;;;;;;;;;;;;;;;;;2219578;58;1981;-81
2023/10/01 04:53:35;;;;;;;;;;;;;;;;;;2222660;58;2896;-81
2023/10/01 04:56:10;;;;;;;;;;;;;;;;;;2221561;58;2158;-80
2023/10/01 04:58:46;;;;;;;;;;;;;;;;;;2223350;58;1653;-82
2023/10/01 05:01:24;;;;;;;;;;;;;;;;;;2221973;58;1834;-84
2023/10/01 05:04:01;;;;;;;;;;;;;;;;;;2221662;58;2470;-82
2023/10/01 05:06:32;;;;;;;;;;;;;;;;;;2223269;58;2862;-82
2023/10/01 05:09:24;;;;;;;;;;;;;;;;;;2221851;58;2484;-82
2023/10/01 05:12:01;;;;;;;;;;;;;;;;;;2222720;58;2726;-82
2023/10/01 05:14:32;;;;;;;;;;;;;;;;;;2223543;58;1578;-82
2023/10/01 05:17:07;;;;;;;;;;;;;;;;;;2221839;58;2164;-82
2023/10/01 05:19:41;;;;;;;;;;;;;;;;;;2223500;58;2605;-82
2023/10/01 05:22:12;;;;;;;;;;;;;;;;;;2222839;58;1658;-80
2023/10/01 05:24:48;;;;;;;;;;;;;;;;;;2226030;58;1938;-81
2023/10/01 05:27:22;;;;;;;;;;;;;;;;;;2225015;58;2640;-81
2023/10/01 05:29:55;;;;;;;;;;;;;;;;;;2225714;58;2037;-80
2023/10/01 05:32:27;;;;;;;;;;;;;;;;;;2222344;58;2301;-82
2023/10/01 05:35:14;;;;;;;;;;;;;;;;;;2225858;58;1984;-81
2023/10/01 05:37:45;;;;;;;;;;;;;;;;;;2223262;58;2509;-81
2023/10/01 05:40:18;;;;;;;;;;;;;;;;;;2225326;58;2349;-81
2023/10/01 05:42:53;;;;;;;;;;;;;;;;;;2225768;58;1872;-83
2023/10/01 05:45:36;;;;;;;;;;;;;;;;;;2227047;58;1830;-81
2023/10/01 05:48:18;;;;;;;;;;;;;;;;;;2225561;58;1825;-82
2023/10/01 05:50:58;;;;;;;;;;;;;;;;;;2225567;58;2904;-81
2023/10/01 05:53:36;;;;;;;;;;;;;;;;;;2225573;58;2604;-82
2023/10/01 05:56:15;;;;;;;;;;;;;;;;;;2225228;58;2091;-82
2023/10/01 05:58:48;;;;;;;;;;;;;;;;;;2226168;58;2196;-82
2023/10/01 06:01:21;;;;;;;;;;;;;;;;;;2226513;58;1962;-82
2023/10/01 06:03:56;;;;;;;;;;;;;;;;;;2227187;58;1929;-81
2023/10/01 06:06:26;;;;;;;;;;;;;;;;;;2226615;58;1677;-82
2023/10/01 06:08:58;;;;;;;;;;;;;;;;;;2225971;58;2009;-82
2023/10/01 06:11:38;;;;;;;;;;;;;;;;;;2226823;58;1746;-81
2023/10/01 06:14:38;;;;;;;;;;;;;;;;;;2225640;58;1954;-81
2023/10/01 06:17:10;;;;;;;;;;;;;;;;;;2225119;58;2387;-81
2023/10/01 06:19:46;;;;;;;;;;;;;;;;;;2224761;58;2424;-82
2023/10/01 06:22:22;;;;;;;;;;;;;;;;;;2226734;58;2717;-82
2023/10/01 06:24:54;;;;;;;;;;;;;;;;;;2226148;58;1967;-81
2023/10/01 06:27:25;;;;;;;;;;;;;;;;;;2225716;58;1843;-81
2023/10/01 06:30:00;;;;;;;;;;;;;;;;;;2225887;58;1727;-81
2023/10/01 06:32:37;;;;;;;;;;;;;;;;;;2226103;58;2851;-81
2023/10/01 06:35:19;;;;;;;;;;;;;;;;;;2222462;58;2677;-82
2023/10/01 06:37:50;;;;;;;;;;;;;;;;;;2226249;58;1949;-82
2023/10/01 06:40:32;;;;;;;;;;;;;;;;;;2230026;58;1917;-81
2023/10/01 06:43:15;;;;;;;;;;;;;;;;;;2234147;58;3918;-80
2023/10/01 06:45:59;;;;;;;;;;;;;;;;;;2228716;58;1823;-80
2023/10/01 06:48:31;;;;;;;;;;;;;;;;;;2227565;58;1936;-81
2023/10/01 06:51:06;;;;;;;;;;;;;;;;;;2226143;58;2222;-82
2023/10/01 06:53:48;;;;;;;;;;;;;;;;;;2223359;58;2253;-80
2023/10/01 06:56:21;;;;;;;;;;;;;;;;;;2224224;58;1948;-81
2023/10/01 07:01:59;;;;;;;;;;;;;;;;;;2225324;58;2272;-81
2023/10/01 07:04:31;;;;;;;;;;;;;;;;;;2226968;58;1496;-80
2023/10/01 07:07:20;;;;;;;;;;;;;;;;;;2224982;58;2267;-80
2023/10/01 07:09:53;;;;;;;;;;;;;;;;;;2226800;58;1632;-80
2023/10/01 07:12:27;;;;;;;;;;;;;;;;;;2227660;58;1942;-81
2023/10/01 07:14:58;;;;;;;;;;;;;;;;;;2228602;58;1767;-80
2023/10/01 07:17:33;;;;;;;;;;;;;;;;;;2233992;58;2136;-80
2023/10/01 07:20:18;;;;;;;;;;;;;;;;;;2231369;58;1838;-80
2023/10/01 07:22:57;;;;;;;;;;;;;;;;;;2228037;58;1762;-84
2023/10/01 07:25:43;;;;;;;;;;;;;;;;;;2228202;58;2169;-80
2023/10/01 07:28:21;;;;;;;;;;;;;;;;;;2229653;58;1748;-79
2023/10/01 07:31:01;;;;;;;;;;;;;;;;;;2233158;58;2072;-81
2023/10/01 07:33:33;;;;;;;;;;;;;;;;;;2228481;58;3471;-81
2023/10/01 07:36:20;;;;;;;;;;;;;;;;;;2225801;58;1961;-80
2023/10/01 07:38:56;;;;;;;;;;;;;;;;;;2226132;58;3096;-80
2023/10/01 07:41:27;;;;;;;;;;;;;;;;;;2226584;58;1885;-80
2023/10/01 07:44:07;;;;;;;;;;;;;;;;;;2227340;58;1806;-81
2023/10/01 07:46:42;;;;;;;;;;;;;;;;;;2226956;58;2085;-79
2023/10/01 07:49:18;;;;;;;;;;;;;;;;;;2226249;58;3653;-81
2023/10/01 07:51:56;;;;;;;;;;;;;;;;;;2227139;58;1962;-80
2023/10/01 07:54:28;;;;;;;;;;;;;;;;;;2223133;58;2169;-80
2023/10/01 07:57:02;;;;;;;;;;;;;;;;;;2225675;58;3563;-80
2023/10/01 07:59:35;;;;;;;;;;;;;;;;;;2225473;58;2250;-81
2023/10/01 08:02:22;;;;;;;;;;;;;;;;;;2223078;58;1756;-80
2023/10/01 08:04:58;;;;;;;;;;;;;;;;;;2227147;58;1760;-80
2023/10/01 08:07:39;;;;;;;;;;;;;;;;;;2226733;58;1685;-80
2023/10/01 08:10:17;;;;;;;;;;;;;;;;;;2226201;58;1692;-81
2023/10/01 08:15:33;;;;;;;;;;;;;;;;;;2225708;58;2128;-81
2023/10/01 08:18:34;;;;;;;;;;;;;;;;;;2225549;66;2158;-81
2023/10/01 08:21:15;;;;;;;;;;;;;;;;;;2224066;58;1914;-81
2023/10/01 08:23:48;;;;;;;;;;;;;;;;;;2223550;58;2443;-80
2023/10/01 08:29:15;;;;;;;;;;;;;;;;;;2224017;58;1772;-80
2023/10/01 08:34:27;;;;;;;;;;;;;;;;;;2227133;58;1881;-81
2023/10/01 08:37:06;;;;;;;;;;;;;;;;;;2225540;58;1927;-81
2023/10/01 08:39:47;;;;;;;;;;;;;;;;;;2225388;58;1833;-81
2023/10/01 08:42:22;;;;;;;;;;;;;;;;;;2225595;58;2764;-82
2023/10/01 08:44:54;;;;;;;;;;;;;;;;;;2225356;58;1739;-80
2023/10/01 08:47:31;;;;;;;;;;;;;;;;;;2224398;58;1832;-80
2023/10/01 08:52:57;;;;;;;;;;;;;;;;;;2225138;58;1865;-80
2023/10/01 08:55:35;;;;;;;;;;;;;;;;;;2224996;58;1979;-80
2023/10/01 09:01:12;;;;;;;;;;;;;;;;;;2226725;58;2556;-81
2023/10/01 09:03:55;;;;;;;;;;;;;;;;;;2227363;58;1742;-80
2023/10/01 09:06:45;;;;;;;;;;;;;;;;;;2223356;58;2260;-80
2023/10/01 09:09:26;;;;;;;;;;;;;;;;;;2224977;58;2517;-81
2023/10/01 09:11:58;;;;;;;;;;;;;;;;;;2225388;58;1736;-80
2023/10/01 09:14:39;;;;;;;;;;;;;;;;;;2224804;58;3629;-81
2023/10/01 09:17:40;;;;;;;;;;;;;;;;;;2222555;58;1905;-80
2023/10/01 09:20:17;;;;;;;;;;;;;;;;;;2224768;58;2111;-81
2023/10/01 09:23:00;;;;;;;;;;;;;;;;;;2226436;58;2294;-80
2023/10/01 09:25:39;;;;;;;;;;;;;;;;;;2225420;58;2455;-81
2023/10/01 09:28:29;;;;;;;;;;;;;;;;;;2224239;58;2405;-83
2023/10/01 09:31:52;;;;;;;;;;;;;;;;;;2224733;58;2875;-82
2023/10/01 09:34:33;;;;;;;;;;;;;;;;;;2223891;58;1786;-82
2023/10/01 09:43:18;;;;;;;;;;;;;;;;;;2217228;58;1647;-82
2023/10/01 09:45:49;;;;;;;;;;;;;;;;;;2221343;58;1884;-82
2023/10/01 09:48:48;;;;;;;;;;;;;;;;;;2224671;58;2479;-83
2023/10/01 09:51:22;;;;;;;;;;;;;;;;;;2225858;58;2836;-82
2023/10/01 09:54:00;;;;;;;;;;;;;;;;;;2225041;58;1486;-82
2023/10/01 09:56:39;;;;;;;;;;;;;;;;;;2223943;58;2019;-83
2023/10/01 09:59:11;;;;;;;;;;;;;;;;;;2224062;58;2158;-82
2023/10/01 10:01:42;;;;;;;;;;;;;;;;;;2224465;58;2932;-83
2023/10/01 10:04:20;;;;;;;;;;;;;;;;;;2224631;58;2427;-83
2023/10/01 10:07:04;;;;;;;;;;;;;;;;;;2224782;58;2289;-82
2023/10/01 10:09:37;;;;;;;;;;;;;;;;;;2221491;58;2516;-82
2023/10/01 10:12:14;;;;;;;;;;;;;;;;;;2222706;58;1878;-83
2023/10/01 10:14:44;;;;;;;;;;;;;;;;;;2225181;58;2073;-83
2023/10/01 10:17:25;;;;;;;;;;;;;;;;;;2226160;59;1990;-84
2023/10/01 10:20:31;;;;;;;;;;;;;;;;;;2233701;58;2044;-83
2023/10/01 10:23:29;;;;;;;;;;;;;;;;;;2224875;58;1513;-83
2023/10/01 10:26:12;;;;;;;;;;;;;;;;;;2228919;58;2010;-83
2023/10/01 10:28:52;;;;;;;;;;;;;;;;;;2225462;58;1648;-83
2023/10/01 10:31:33;;;;;;;;;;;;;;;;;;2222858;59;2292;-83
2023/10/01 10:34:21;;;;;;;;;;;;;;;;;;2224229;58;1903;-83
2023/10/01 10:36:55;;;;;;;;;;;;;;;;;;2225209;58;2159;-82
2023/10/01 10:39:50;;;;;;;;;;;;;;;;;;2222571;58;1974;-82
2023/10/01 10:42:28;;;;;;;;;;;;;;;;;;2223001;58;1839;-83
2023/10/01 10:48:16;;;;;;;;;;;;;;;;;;2217446;58;1970;-83
2023/10/01 10:51:02;;;;;;;;;;;;;;;;;;2224650;58;4093;-83
2023/10/01 10:53:37;;;;;;;;;;;;;;;;;;2223644;58;2069;-83
2023/10/01 10:56:13;;;;;;;;;;;;;;;;;;2222084;58;2499;-82
2023/10/01 10:58:53;;;;;;;;;;;;;;;;;;2225206;66;1690;-81
2023/10/01 11:01:23;;;;;;;;;;;;;;;;;;2223777;58;2717;-82
2023/10/01 11:03:57;;;;;;;;;;;;;;;;;;2220411;58;2189;-82
2023/10/01 11:06:39;;;;;;;;;;;;;;;;;;2224310;58;2273;-82
2023/10/01 11:09:22;;;;;;;;;;;;;;;;;;2223747;58;1694;-81
2023/10/01 11:12:01;;;;;;;;;;;;;;;;;;2223841;58;3360;-82
2023/10/01 11:14:34;;;;;;;;;;;;;;;;;;2225233;58;1853;-82
2023/10/01 11:17:07;;;;;;;;;;;;;;;;;;2224074;58;3268;-82
2023/10/01 11:19:38;;;;;;;;;;;;;;;;;;2223151;58;2905;-82
2023/10/01 11:22:08;;;;;;;;;;;;;;;;;;2222304;58;2242;-82
2023/10/01 11:24:39;;;;;;;;;;;;;;;;;;2222524;58;1880;-82
2023/10/01 11:27:25;;;;;;;;;;;;;;;;;;2222426;58;3779;-82
2023/10/01 11:30:12;;;;;;;;;;;;;;;;;;2223561;58;2376;-82
2023/10/01 11:32:58;;;;;;;;;;;;;;;;;;2223371;58;2219;-82
2023/10/01 11:35:31;;;;;;;;;;;;;;;;;;2221715;58;2244;-82
2023/10/01 11:38:07;;;;;;;;;;;;;;;;;;2222599;58;2402;-82
2023/10/01 11:43:35;;;;;;;;;;;;;;;;;;2222830;58;2289;-83
2023/10/01 11:46:19;;;;;;;;;;;;;;;;;;2224155;58;2085;-82
2023/10/01 11:49:18;;;;;;;;;;;;;;;;;;2223676;58;1835;-82
2023/10/01 11:51:50;;;;;;;;;;;;;;;;;;2224222;58;2142;-82
2023/10/01 11:54:25;;;;;;;;;;;;;;;;;;2224013;58;2328;-82
2023/10/01 11:57:04;;;;;;;;;;;;;;;;;;2220948;58;3597;-82
2023/10/01 11:59:36;;;;;;;;;;;;;;;;;;2224350;58;1695;-83
2023/10/01 12:02:18;;;;;;;;;;;;;;;;;;2223555;58;2541;-82
2023/10/01 12:04:56;;;;;;;;;;;;;;;;;;2224646;58;3343;-82
2023/10/01 12:07:40;;;;;;;;;;;;;;;;;;2223819;58;3360;-82
2023/10/01 12:10:31;;;;;;;;;;;;;;;;;;2224626;58;2547;-82
2023/10/01 12:13:02;;;;;;;;;;;;;;;;;;2224846;58;2291;-82
2023/10/01 12:15:37;;;;;;;;;;;;;;;;;;2223673;58;1884;-83
2023/10/01 12:18:08;;;;;;;;;;;;;;;;;;2226226;58;2094;-82
2023/10/01 12:20:39;;;;;;;;;;;;;;;;;;2223852;58;3372;-82
2023/10/01 12:23:13;;;;;;;;;;;;;;;;;;2225259;58;1949;-83
2023/10/01 12:25:46;;;;;;;;;;;;;;;;;;2225598;66;2347;-82
2023/10/01 12:28:29;;;;;;;;;;;;;;;;;;2224862;58;1673;-82
2023/10/01 12:31:12;;;;;;;;;;;;;;;;;;2232020;58;1895;-82
2023/10/01 12:33:47;;;;;;;;;;;;;;;;;;2231160;58;3257;-82
2023/10/01 12:36:42;;;;;;;;;;;;;;;;;;2227214;58;2493;-82
2023/10/01 12:44:30;;;;;;;;;;;;;;;;;;2232661;58;2498;-82
2023/10/01 12:47:01;;;;;;;;;;;;;;;;;;2232967;59;3535;-82
2023/10/01 12:49:33;;;;;;;;;;;;;;;;;;2224450;58;2553;-82
2023/10/01 12:52:05;;;;;;;;;;;;;;;;;;2224150;58;3276;-82
2023/10/01 12:54:39;;;;;;;;;;;;;;;;;;2224000;58;2533;-82
2023/10/01 12:57:18;;;;;;;;;;;;;;;;;;2224703;58;2179;-82
2023/10/01 13:02:43;;;;;;;;;;;;;;;;;;2223083;58;2127;-82
2023/10/01 13:05:16;;;;;;;;;;;;;;;;;;2223814;58;2213;-82
2023/10/01 13:07:50;;;;;;;;;;;;;;;;;;2224796;59;1956;-82
2023/10/01 13:10:34;;;;;;;;;;;;;;;;;;2222752;58;2396;-82
2023/10/01 13:13:05;;;;;;;;;;;;;;;;;;2224605;58;1791;-82
2023/10/01 13:15:41;;;;;;;;;;;;;;;;;;2223926;58;2450;-82
2023/10/01 13:18:14;;;;;;;;;;;;;;;;;;2224363;58;2043;-83
2023/10/01 13:23:31;;;;;;;;;;;;;;;;;;2223658;58;2049;-82
2023/10/01 13:26:09;;;;;;;;;;;;;;;;;;2225623;58;1897;-82
2023/10/01 13:28:46;;;;;;;;;;;;;;;;;;2223533;58;2046;-82
2023/10/01 13:37:42;;;;;;;;;;;;;;;;;;2225053;66;2578;-82
2023/10/01 14:10:51;;;;;;;;;;;;;;;;;;2224399;58;2723;-82
2023/10/01 14:13:34;;;;;;;;;;;;;;;;;;2224132;58;2926;-82
2023/10/01 14:16:11;;;;;;;;;;;;;;;;;;2226152;58;2014;-81
2023/10/01 14:18:53;;;;;;;;;;;;;;;;;;2224023;58;3407;-82
2023/10/01 14:21:25;;;;;;;;;;;;;;;;;;2222404;58;3012;-82
2023/10/01 14:27:05;;;;;;;;;;;;;;;;;;2219280;58;2117;-82
2023/10/01 14:29:36;;;;;;;;;;;;;;;;;;2221883;58;2628;-82
2023/10/01 14:32:10;;;;;;;;;;;;;;;;;;2224622;58;2481;-82
2023/10/01 14:34:41;;;;;;;;;;;;;;;;;;2222987;58;3587;-82
2023/10/01 14:37:16;;;;;;;;;;;;;;;;;;2224410;58;2010;-82
2023/10/01 14:39:50;;;;;;;;;;;;;;;;;;2224339;58;1916;-82
2023/10/01 14:42:20;;;;;;;;;;;;;;;;;;2223453;58;2601;-82
2023/10/01 14:44:50;;;;;;;;;;;;;;;;;;2223898;58;1646;-82
2023/10/01 14:47:21;;;;;;;;;;;;;;;;;;2223938;58;3522;-83
2023/10/01 14:49:51;;;;;;;;;;;;;;;;;;2224668;58;2091;-82
2023/10/01 14:52:23;;;;;;;;;;;;;;;;;;2224211;58;1831;-82
2023/10/01 14:55:01;;;;;;;;;;;;;;;;;;2224202;58;3674;-82
2023/10/01 14:57:34;;;;;;;;;;;;;;;;;;2222946;59;2164;-82
2023/10/01 15:00:16;;;;;;;;;;;;;;;;;;2223310;58;2347;-82
2023/10/01 15:02:48;;;;;;;;;;;;;;;;;;2219957;58;2531;-82
2023/10/01 15:05:19;;;;;;;;;;;;;;;;;;2225176;58;2217;-82
2023/10/01 15:07:49;;;;;;;;;;;;;;;;;;2224100;58;2740;-82
2023/10/01 15:10:20;;;;;;;;;;;;;;;;;;2225218;58;2223;-82
2023/10/01 15:12:50;;;;;;;;;;;;;;;;;;2224632;58;2751;-81
2023/10/01 15:15:23;;;;;;;;;;;;;;;;;;2225454;59;1810;-82
2023/10/01 15:17:56;;;;;;;;;;;;;;;;;;2225485;58;2537;-82
2023/10/01 15:20:47;;;;;;;;;;;;;;;;;;2223873;58;3084;-82
2023/10/01 15:23:20;;;;;;;;;;;;;;;;;;2224983;58;2349;-82
2023/10/01 15:25:51;;;;;;;;;;;;;;;;;;2225434;58;2451;-81
2023/10/01 15:28:22;;;;;;;;;;;;;;;;;;2225312;58;2020;-81
2023/10/01 15:30:54;;;;;;;;;;;;;;;;;;2227399;58;1791;-82
2023/10/01 15:33:25;;;;;;;;;;;;;;;;;;2224414;58;1836;-82
2023/10/01 15:35:56;;;;;;;;;;;;;;;;;;2226352;58;1940;-82
2023/10/01 15:38:35;;;;;;;;;;;;;;;;;;2225284;66;2071;-82
2023/10/01 15:41:09;;;;;;;;;;;;;;;;;;2222722;58;1551;-81
2023/10/01 15:43:50;;;;;;;;;;;;;;;;;;2224474;58;1920;-82
2023/10/01 15:46:25;;;;;;;;;;;;;;;;;;2225746;58;2543;-82
2023/10/01 15:48:56;;;;;;;;;;;;;;;;;;2226270;59;1993;-81
2023/10/01 15:51:26;;;;;;;;;;;;;;;;;;2224952;58;2807;-81
2023/10/01 15:54:00;;;;;;;;;;;;;;;;;;2227527;58;1969;-81
2023/10/01 15:56:30;;;;;;;;;;;;;;;;;;2225330;58;2262;-82
2023/10/01 15:59:10;;;;;;;;;;;;;;;;;;2226136;58;2042;-81
2023/10/01 16:01:50;;;;;;;;;;;;;;;;;;2225650;63;2048;-82
2023/10/01 16:04:23;;;;;;;;;;;;;;;;;;2225847;58;1953;-81
2023/10/01 16:07:03;;;;;;;;;;;;;;;;;;2225813;58;2462;-82
2023/10/01 16:09:40;;;;;;;;;;;;;;;;;;2225352;58;2162;-82
2023/10/01 16:12:15;;;;;;;;;;;;;;;;;;2225729;58;2209;-82
2023/10/01 16:14:46;;;;;;;;;;;;;;;;;;2222607;66;2287;-81
2023/10/01 16:17:19;;;;;;;;;;;;;;;;;;2226723;58;2068;-82
2023/10/01 16:19:50;;;;;;;;;;;;;;;;;;2226660;58;2217;-82
2023/10/01 16:22:22;;;;;;;;;;;;;;;;;;2227206;58;3311;-82
2023/10/01 16:24:56;;;;;;;;;;;;;;;;;;2226840;58;1893;-82
2023/10/01 16:27:33;;;;;;;;;;;;;;;;;;2226399;58;1600;-82
2023/10/01 16:30:17;;;;;;;;;;;;;;;;;;2226686;58;2221;-82
2023/10/01 16:32:52;;;;;;;;;;;;;;;;;;2225826;58;1971;-83
2023/10/01 16:35:27;;;;;;;;;;;;;;;;;;2226347;58;2068;-82
2023/10/01 16:38:06;;;;;;;;;;;;;;;;;;2227459;58;1923;-81
2023/10/01 16:40:37;;;;;;;;;;;;;;;;;;2225982;58;2744;-81
2023/10/01 16:43:16;;;;;;;;;;;;;;;;;;2226169;58;1622;-82
2023/10/01 16:45:50;;;;;;;;;;;;;;;;;;2226621;58;2689;-82
2023/10/01 16:48:29;;;;;;;;;;;;;;;;;;2227708;58;2814;-82
2023/10/01 16:54:16;;;;;;;;;;;;;;;;;;2220795;58;1843;-82
2023/10/01 16:56:49;;;;;;;;;;;;;;;;;;2224602;58;2833;-82
2023/10/01 16:59:32;;;;;;;;;;;;;;;;;;2226485;58;2261;-82
2023/10/01 17:02:02;;;;;;;;;;;;;;;;;;2222927;66;2450;-82
2023/10/01 17:04:38;;;;;;;;;;;;;;;;;;2225864;58;1960;-82
2023/10/01 17:07:14;;;;;;;;;;;;;;;;;;2225510;58;2983;-82
2023/10/01 17:09:52;;;;;;;;;;;;;;;;;;2224045;58;2567;-82
2023/10/01 17:12:28;;;;;;;;;;;;;;;;;;2226260;58;2647;-82
2023/10/01 17:15:07;;;;;;;;;;;;;;;;;;2225992;58;1852;-82
2023/10/01 17:17:38;;;;;;;;;;;;;;;;;;2225388;58;2284;-82
2023/10/01 17:20:14;;;;;;;;;;;;;;;;;;2226828;66;1734;-82
2023/10/01 17:22:46;;;;;;;;;;;;;;;;;;2225609;58;1998;-81
2023/10/01 17:25:18;;;;;;;;;;;;;;;;;;2227605;59;1879;-82
2023/10/01 17:27:53;;;;;;;;;;;;;;;;;;2225905;58;3553;-81
2023/10/01 17:30:29;;;;;;;;;;;;;;;;;;2225842;59;1955;-81
2023/10/01 17:33:04;;;;;;;;;;;;;;;;;;2225448;58;1506;-81
2023/10/01 17:35:47;;;;;;;;;;;;;;;;;;2226202;58;2611;-80
2023/10/01 17:38:23;;;;;;;;;;;;;;;;;;2231112;58;1643;-80
2023/10/01 17:40:56;;;;;;;;;;;;;;;;;;2232497;58;2288;-81
2023/10/01 17:43:31;;;;;;;;;;;;;;;;;;2232649;58;3499;-80
2023/10/01 17:46:13;;;;;;;;;;;;;;;;;;2227619;63;1753;-81
2023/10/01 17:48:46;;;;;;;;;;;;;;;;;;2224316;58;2922;-81
2023/10/01 17:51:24;;;;;;;;;;;;;;;;;;2232038;58;1698;-81
2023/10/01 17:54:06;;;;;;;;;;;;;;;;;;2232181;58;1903;-82
2023/10/01 17:56:37;;;;;;;;;;;;;;;;;;2229732;58;2383;-82
2023/10/01 17:59:14;;;;;;;;;;;;;;;;;;2223941;66;2103;-81
2023/10/01 18:01:51;;;;;;;;;;;;;;;;;;2224716;58;2566;-82
2023/10/01 18:04:22;;;;;;;;;;;;;;;;;;2225083;58;1942;-82
2023/10/01 18:06:56;;;;;;;;;;;;;;;;;;2225338;58;2124;-82
2023/10/01 18:09:27;;;;;;;;;;;;;;;;;;2224484;58;2440;-81
2023/10/01 18:12:13;;;;;;;;;;;;;;;;;;2224879;58;2339;-81
2023/10/01 18:14:50;;;;;;;;;;;;;;;;;;2225018;58;2897;-81
2023/10/01 18:17:20;;;;;;;;;;;;;;;;;;2225037;58;4480;-81
2023/10/01 18:19:51;;;;;;;;;;;;;;;;;;2223102;58;2376;-82
2023/10/01 18:22:25;;;;;;;;;;;;;;;;;;2223126;59;2386;-82
2023/10/01 18:24:56;;;;;;;;;;;;;;;;;;2222758;58;1649;-83
2023/10/01 18:27:27;;;;;;;;;;;;;;;;;;2223402;58;1860;-82
2023/10/01 18:29:57;;;;;;;;;;;;;;;;;;2223038;58;1796;-81
2023/10/01 18:32:30;;;;;;;;;;;;;;;;;;2225039;58;2295;-81
2023/10/01 18:35:02;;;;;;;;;;;;;;;;;;2224318;58;1705;-82
2023/10/01 18:37:35;;;;;;;;;;;;;;;;;;2224581;58;2194;-81
2023/10/01 18:40:13;;;;;;;;;;;;;;;;;;2225365;63;1859;-81
2023/10/01 18:42:43;;;;;;;;;;;;;;;;;;2223675;58;2077;-81
2023/10/01 18:45:14;;;;;;;;;;;;;;;;;;2225943;58;2415;-81
2023/10/01 18:47:52;;;;;;;;;;;;;;;;;;2225745;58;2126;-81
2023/10/01 18:50:25;;;;;;;;;;;;;;;;;;2226669;58;2334;-80
2023/10/01 18:52:56;;;;;;;;;;;;;;;;;;2224329;58;2158;-81
2023/10/01 18:55:28;;;;;;;;;;;;;;;;;;2225016;58;2235;-81
2023/10/01 18:57:58;;;;;;;;;;;;;;;;;;2224975;58;1971;-81
2023/10/01 19:00:29;;;;;;;;;;;;;;;;;;2224653;58;2175;-81
2023/10/01 19:03:01;;;;;;;;;;;;;;;;;;2224094;58;1991;-81
2023/10/01 19:05:35;;;;;;;;;;;;;;;;;;2227384;58;2493;-81
2023/10/01 19:08:08;;;;;;;;;;;;;;;;;;2226401;58;2624;-81
2023/10/01 19:10:45;;;;;;;;;;;;;;;;;;2224018;58;3229;-81
2023/10/01 19:13:17;;;;;;;;;;;;;;;;;;2225904;58;2604;-81
2023/10/01 19:15:48;;;;;;;;;;;;;;;;;;2225444;58;1676;-81
2023/10/01 19:18:18;;;;;;;;;;;;;;;;;;2226135;58;2572;-81
2023/10/01 19:20:48;;;;;;;;;;;;;;;;;;2224947;58;2116;-80
2023/10/01 19:23:30;;;;;;;;;;;;;;;;;;2225339;58;1838;-81
2023/10/01 19:26:03;;;;;;;;;;;;;;;;;;2223616;58;2924;-82
2023/10/01 19:28:34;;;;;;;;;;;;;;;;;;2227687;66;2082;-81
2023/10/01 19:31:10;;;;;;;;;;;;;;;;;;2223373;58;2670;-81
2023/10/01 19:33:43;;;;;;;;;;;;;;;;;;2225915;58;1744;-81
2023/10/01 19:36:15;;;;;;;;;;;;;;;;;;2223925;58;1978;-81